Garrett, PA

3:31 PM EDT on May 28, 2017 (GMT -0400)
Glade City | | Change Station
Active Advisory: Flash Flood Watch Active Notice: Flash Flood Watch

Elev 2029 ft 39.82 °N, 79.00 °W | Updated 6 seconds ago

Overcast
Overcast
65.7 °F
Feels Like 65.7 °F
N
0.9
Wind Variable Wind from NE
Gusts 2.5 mph

Today
High -- | Low -- °F
--% Chance of Precip.
Yesterday
High -- | Low -- °F
Precip. -- in
Pressure 29.87 in
Visibility 10.0 miles
Clouds Scattered Clouds 1200 ft
Overcast 1900 ft
Dew Point 62 °F
Humidity 89%
Rainfall 0.04 in
Snow Depth Not available.
5:51 AM 8:35 PM
Waxing Crescent, 13% visible
METAR KCBE 281913Z AUTO 00000KT 10SM SCT012 OVC019 20/18 A2987 RMK AO1
Pressure 29.87 in
Visibility 10.0 miles
Clouds Scattered Clouds 1200 ft
Overcast 1900 ft
Dew Point 62 °F
Humidity 89%
Rainfall 0.04 in
Snow Depth Not available.
5:51 AM 8:35 PM
Waxing Crescent, 13% visible
METAR KCBE 281913Z AUTO 00000KT 10SM SCT012 OVC019 20/18 A2987 RMK AO1

Get Your Daily Forecast Email!

Thanks for signing up!

Be on the lookout for a verification email in your inbox.

You'll start receiving severe weather alerts in your inbox..

×

10-Day Weather Forecast

Almanac

Astronomy

May. 28, 2017 Rise Set
Actual Time
Civil Twilight
Nautical Twilight
Astronomical Twilight
Moon
Length of Visible Light
Length of Day
Tomorrow will be .
, % of the Moon is Illuminated

Today's Extremes

State Highs State Lows

Community

WunderPhotos

Category 6

Welcome to Category 6. This is the collective home for Weather Underground's featured writeups by Dr. Jeff Masters (right), Bob Henson (left), Chris Burt, and other regular contributors.

Nearby

Air Quality

  Air Quality AQ Index Pollutant
Not available.

Snow Depth

Station Depth Elevation

Earthquake Activity

City Distance Mag. Time & Date
Minimum magnitude displayed is 2.5.

Coastal Water Temperatures

Place Temperature

Stations

Nearby Weather Stations

Station Location Temp. Windchill Dew Point Humidity Wind Precip. Elev Updated Type
                   

Watches & Warnings

Flash Flood Watch
Issued: 11:19 AM EDT May. 28, 2017 – National Weather Service

... Flash Flood Watch in effect until 10 PM EDT this evening...

The National Weather Service in State College has issued a

* Flash Flood Watch for a portion of central Pennsylvania,
including the following areas, Bedford and Somerset.

* Until 10 PM EDT this evening

* locally very heavy rain of over one inch in just 30 minutes
will fall from slow moving showers and thunderstorms as they
drift from southwest to northeast across the region this
afternoon and evening.

* Rainfall amounts of just 1 to 1.5 inches in an hour, or 1.5 to 2
inches in a 3 hour period would be enough to greatly increase
the threat for flash flooding given the already very moist
ground from recent rainfall.

Precautionary/preparedness actions...

Review flood safety and preparedness information at
tadd.Weather.Gov.



Lambert/tyburski